Date,TemperatureHighF,TemperatureAvgF,TemperatureLowF,DewpointHighF,DewpointAvgF,DewpointLowF,HumidityHigh,HumidityAvg,HumidityLow,PressureMaxIn,PressureMinIn,WindSpeedMaxMPH,WindSpeedAvgMPH,GustSpeedMaxMPH,PrecipitationSumIn
2014-1-1,66.6,49.2,32.6,53.3,41.9,30.1,92,77,60,30.23,29.91,15,8,19,0.00
2014-1-2,43.4,31.8,26.2,35.0,25.3,21.2,81,77,72,30.42,30.14,13,8,17,0.00
2014-1-3,52.6,36.8,22.3,32.2,25.3,18.3,90,66,35,30.47,30.07,10,4,0,0.00
2014-1-4,67.5,53.4,38.0,55.7,46.9,32.6,94,80,60,30.07,29.72,20,10,0,0.00
2014-1-5,59.1,38.0,24.9,56.9,27.8,15.8,94,67,48,30.51,29.72,15,10,0,0.00
2014-1-6,30.1,22.2,15.8,15.9,9.7,5.9,74,59,39,30.77,30.52,11,4,0,0.00
2014-1-7,44.1,32.4,17.0,26.7,15.7,11.9,83,53,28,30.62,30.31,12,5,0,0.00
2014-1-8,49.7,43.2,36.8,49.2,40.9,28.0,98,92,61,30.31,30.10,13,5,10,0.10
2014-1-9,59.3,52.8,48.2,59.3,52.3,47.7,100,98,95,30.16,29.97,8,0,0,0.09
2014-1-10,68.3,62.3,53.6,65.0,61.3,52.8,100,97,88,29.96,29.67,13,7,0,0.75
2014-1-11,67.6,53.9,42.9,52.7,39.2,31.1,97,62,26,30.10,29.79,4,0,0,0.00
2014-1-12,65.3,54.9,40.2,56.5,44.4,35.4,90,69,43,30.06,29.82,20,8,0,0.00
2014-1-13,63.9,58.7,50.4,60.0,48.0,24.8,98,73,23,30.02,29.77,13,8,18,0.00
2014-1-14,68.0,50.1,35.1,38.1,31.1,25.8,79,52,23,30.32,29.98,10,3,0,0.00
2014-1-15,59.1,41.8,34.8,31.1,25.8,22.6,70,54,30,30.40,30.10,4,0,8,0.00
2014-1-16,67.3,49.1,37.1,38.1,33.1,23.1,75,56,32,30.19,30.02,10,2,11,0.00
2014-1-17,55.1,46.4,34.9,26.1,21.5,15.4,68,39,21,30.36,30.18,9,2,13,0.00
2014-1-18,66.7,49.1,35.2,42.5,33.2,24.0,80,56,38,30.21,30.05,13,3,17,0.00
2014-1-19,64.5,49.0,37.0,35.1,30.5,-99.9,70,52,25,30.31,30.06,4,-6,8,0.00
2014-1-20,77.2,57.9,43.7,52.7,39.9,31.1,79,53,28,30.16,29.80,14,6,18,0.00
2014-1-21,55.0,44.5,31.6,31.7,24.0,17.9,79,46,27,30.40,30.16,12,-4,19,0.00
2014-1-22,63.0,46.2,28.7,37.3,30.3,22.5,81,55,34,30.18,30.00,12,2,21,0.00
2014-1-23,44.1,42.2,38.0,34.2,27.7,22.0,70,56,47,30.46,30.10,16,9,25,0.00
2014-1-24,41.3,28.0,22.9,21.2,4.3,-99.9,79,49,31,30.73,30.30,9,2,0,0.00
2014-1-25,64.7,39.5,25.7,38.4,27.4,21.4,87,66,29,30.29,29.98,8,2,3,0.00
2014-1-26,71.6,56.5,45.8,42.9,39.8,35.0,76,56,33,29.98,29.63,16,4,21,0.00
2014-1-27,52.1,40.3,29.1,38.8,17.7,4.3,69,41,30,30.28,29.73,20,11,24,0.00
2014-1-28,37.1,29.5,23.9,18.2,10.1,5.0,67,45,32,30.47,30.27,13,7,17,0.00
2014-1-29,44.4,31.3,17.1,19.0,15.3,11.4,87,55,27,30.49,30.23,9,2,13,0.00
2014-1-30,58.7,43.5,26.6,51.1,34.2,15.7,92,70,56,30.23,29.84,23,10,25,0.00
2014-1-31,75.6,62.9,53.9,60.6,56.2,51.3,92,80,55,29.89,29.75,17,12,22,0.00
2014-2-1,67.5,58.8,43.2,65.2,54.7,39.6,96,87,71,29.95,29.71,13,5,16,0.04
2014-2-2,42.8,34.9,30.6,39.2,32.4,27.7,95,91,83,30.25,29.95,14,8,18,0.09
2014-2-3,40.6,36.3,30.9,39.0,33.4,28.3,94,89,84,30.26,29.97,7,1,11,0.00
2014-2-4,53.6,42.7,36.7,46.2,40.8,35.7,98,93,76,30.12,29.85,5,0,6,0.19
2014-2-5,38.5,33.6,30.2,38.0,28.2,22.8,98,81,66,30.49,30.12,13,8,19,0.01
2014-2-6,26.7,23.0,20.8,19.5,16.2,14.4,77,75,69,30.56,30.44,11,8,14,0.00
2014-2-7,32.1,28.5,24.7,30.6,24.9,20.2,94,86,78,30.41,30.24,2,0,0,0.00
2014-2-8,52.5,39.4,32.2,44.1,37.2,30.7,97,92,73,30.25,30.03,10,4,0,0.00
2014-2-9,65.5,49.5,42.0,50.2,44.7,41.4,98,85,56,30.10,29.96,9,3,17,0.00
2014-2-10,44.7,39.1,36.8,42.5,38.2,36.3,98,97,91,30.16,30.08,10,6,20,0.00
2014-2-11,31.9,31.1,30.2,31.1,29.3,27.7,98,93,88,30.30,30.17,11,5,0,0.12
2014-2-12,48.3,37.1,30.5,36.3,32.4,28.9,97,84,62,30.23,30.04,6,1,0,0.01
2014-2-13,59.4,37.5,29.7,43.7,32.2,-99.9,96,85,55,30.06,29.94,10,-7,13,0.00
2014-2-19,74.2,66.0,60.0,64.7,61.9,59.2,98,87,71,29.89,29.67,16,9,0,0.00
2014-2-20,76.9,64.9,45.1,65.7,50.9,32.4,93,65,30,30.07,29.62,17,10,0,0.00
2014-2-21,65.3,50.1,32.9,36.2,31.8,27.0,83,53,27,30.16,30.00,9,2,0,0.00
2014-2-22,73.8,57.3,41.1,54.5,45.8,34.6,89,67,44,30.04,29.82,14,5,0,0.00
2014-2-23,76.0,63.0,49.8,62.9,55.6,42.5,96,78,46,30.07,29.85,8,3,0,0.00
2014-2-24,61.7,53.2,42.8,55.5,47.7,40.1,91,82,75,30.12,29.99,4,1,0,0.00
2014-2-25,58.7,50.0,45.5,55.5,48.3,-99.9,99,95,82,30.08,29.97,11,-1,12,0.13
2014-2-26,44.3,38.5,34.3,40.1,28.7,21.2,89,69,45,30.28,30.08,16,11,25,0.00
2014-2-27,53.5,40.5,26.2,35.2,28.5,20.7,82,64,44,30.17,29.88,7,1,0,0.00
2014-2-28,73.8,55.6,40.0,56.2,47.9,34.6,93,77,51,29.87,29.68,17,8,0,0.00
2014-3-1,57.2,56.5,55.7,55.5,55.0,54.6,97,95,93,29.84,29.82,3,1,3,0.00
2014-3-2,69.1,36.6,20.2,66.4,34.7,17.2,96,93,84,30.33,29.87,12,8,0,0.11
2014-3-3,32.2,22.8,17.4,25.2,18.2,13.3,88,82,72,30.47,30.32,12,7,17,0.00
2014-3-4,28.2,26.0,25.4,25.1,23.0,22.2,90,88,86,30.33,30.22,3,0,4,0.00
2014-3-16,56.6,48.9,41.5,55.7,44.2,34.5,98,84,73,30.05,29.68,17,9,0,0.01
2014-3-17,62.1,46.8,34.5,38.7,33.8,29.9,89,64,33,30.03,29.74,8,1,0,0.00
2014-3-18,77.7,60.9,45.1,58.0,47.5,35.2,82,63,43,29.80,29.61,22,13,0,0.00
2014-3-19,64.3,55.5,47.5,57.6,39.8,33.3,83,56,40,30.18,29.80,10,4,0,0.00
2014-3-20,72.3,55.4,39.6,41.5,37.3,33.7,81,55,26,30.22,29.99,4,1,0,0.00
2014-3-21,75.8,63.2,50.4,62.5,53.7,38.3,89,72,57,29.99,29.79,17,7,0,0.00
2014-3-22,68.8,63.3,54.8,67.7,61.1,46.7,98,93,73,30.00,29.86,7,2,0,0.01
2014-3-23,52.8,49.1,46.5,50.4,44.7,40.9,95,85,68,30.32,30.07,15,7,24,0.24
2014-4-8,70.1,58.1,47.9,50.1,43.2,37.3,96,62,31,30.14,29.96,16,6,0,0.01
2014-4-9,77.6,61.4,44.3,53.6,47.1,39.2,84,62,38,30.22,30.01,12,4,0,0.00
2014-4-10,82.1,68.5,56.0,61.3,56.5,50.9,91,68,43,30.02,29.85,20,13,0,0.00
2014-4-11,80.8,69.1,59.9,65.7,61.7,55.6,96,79,58,29.98,29.85,17,10,0,0.00
2014-4-12,81.6,71.4,63.6,66.8,63.3,59.7,92,76,59,29.93,29.73,19,13,0,0.00
2014-4-13,75.6,69.6,64.8,71.1,66.5,61.4,95,90,81,29.79,29.58,16,9,0,0.05
2014-4-14,69.7,60.5,44.9,68.1,57.7,40.3,96,91,82,29.95,29.61,13,7,20,0.03
2014-4-15,63.3,48.5,35.0,35.7,31.8,24.0,82,57,28,30.33,30.12,2,0,0,0.00
2014-4-16,67.1,52.9,36.3,49.8,41.1,31.9,85,66,47,30.13,29.92,14,5,0,0.00
2014-4-17,69.3,58.4,47.2,58.9,53.4,43.5,95,84,67,30.15,30.00,5,0,0,0.00
2014-4-18,75.5,63.2,52.4,57.3,54.2,49.9,94,74,48,30.19,30.07,5,0,0,0.00
2014-4-19,77.0,63.3,48.9,60.8,55.0,47.2,96,76,53,30.16,30.03,7,2,0,0.00
2014-4-20,78.8,67.1,56.6,63.2,59.4,53.8,96,78,53,30.11,29.98,12,3,0,0.00
2014-4-21,79.2,69.2,60.4,69.1,63.7,57.0,94,83,68,30.02,29.86,11,4,14,0.00
2014-4-22,80.7,68.1,58.1,66.9,61.4,56.2,99,81,51,30.02,29.87,6,1,10,0.01
2014-4-23,59.7,56.8,54.9,56.5,55.0,53.4,97,93,89,29.91,29.87,0,0,0,0.00
2014-4-24,85.1,72.4,61.9,69.7,60.2,48.3,95,70,28,29.89,29.73,13,5,0,0.01
2014-4-25,83.3,65.5,50.7,54.9,50.4,46.2,89,62,32,30.02,29.83,9,2,13,0.00
2014-4-26,80.7,70.5,59.8,70.9,64.8,50.4,97,83,66,29.85,29.61,14,7,18,0.00
2014-4-27,86.6,77.7,71.7,74.8,71.1,68.1,93,81,64,29.61,29.38,15,9,22,0.19
2014-4-28,84.6,71.8,62.0,70.8,49.6,36.6,94,49,19,29.65,29.46,7,1,11,0.00
2014-4-29,77.1,66.7,56.2,51.7,44.8,32.3,83,50,20,29.80,29.56,11,5,16,0.00
2014-4-30,67.7,57.6,48.2,44.2,39.5,36.7,69,52,35,30.14,29.93,11,4,0,0.00
2014-5-1,74.9,56.9,42.6,45.1,38.2,32.0,81,54,23,30.16,29.98,8,1,11,0.00
2014-5-2,79.0,62.5,46.6,46.7,41.6,36.1,77,51,23,30.03,29.90,6,2,11,0.00
2014-5-3,89.7,64.3,43.5,52.5,44.9,36.3,89,57,19,30.00,29.91,4,0,6,0.00
2014-5-4,87.9,72.9,57.1,52.1,47.7,43.8,66,43,24,30.02,29.89,16,7,19,0.00
2014-5-5,86.8,72.8,58.4,62.4,57.1,45.3,92,60,39,29.93,29.74,15,10,21,0.00
2014-5-6,86.0,73.9,62.6,68.1,63.3,59.3,94,71,51,29.81,29.66,16,10,22,0.00
2014-5-7,85.0,74.7,67.4,69.1,66.4,63.1,91,76,57,29.82,29.71,16,10,20,0.00
2014-5-8,78.6,71.4,64.4,74.2,66.2,-99.9,100,90,72,29.81,-32.77,19,-11,19,0.68
2014-5-9,83.7,73.8,65.3,76.2,70.8,63.1,100,91,75,29.87,29.74,10,3,16,0.11
2014-5-10,84.9,72.9,60.1,74.5,66.9,58.5,97,82,65,29.89,29.72,11,4,15,0.00
2014-5-11,86.0,77.4,70.9,74.3,71.1,69.5,96,82,63,29.80,29.65,13,8,0,0.00
2014-5-12,80.7,75.0,63.4,76.2,71.9,62.8,99,90,83,29.85,29.70,12,6,13,1.03
2014-5-13,64.3,59.2,53.9,56.3,54.4,51.6,99,85,70,30.20,29.96,11,5,18,0.01
2014-5-14,69.7,59.8,51.4,56.2,49.9,42.9,98,73,39,30.22,30.13,12,4,18,0.21
2014-5-15,80.2,63.4,48.2,56.8,50.4,44.7,95,67,32,30.24,30.03,9,2,15,0.00
2014-5-16,82.5,68.0,49.8,59.1,52.1,46.3,92,60,35,30.09,29.88,12,4,17,0.00
2014-5-17,83.3,69.9,57.8,64.4,57.4,48.5,87,66,45,30.01,29.86,11,6,16,0.00
2014-5-18,82.7,71.2,60.5,65.9,62.4,58.8,97,75,53,30.05,29.94,12,5,20,0.00
2014-5-19,83.7,73.3,64.0,67.3,63.9,60.8,95,74,53,30.01,29.88,15,8,21,0.01
2014-5-20,85.9,75.6,67.0,69.5,66.1,63.1,95,74,53,30.02,29.92,13,7,19,0.00
2014-5-21,86.0,75.1,66.8,69.4,66.3,62.6,94,76,54,30.04,29.93,14,7,16,0.00
2014-5-22,86.3,74.8,64.2,70.3,66.9,62.7,97,78,55,30.07,29.94,10,3,12,0.00
2014-5-23,83.3,74.1,65.7,70.3,67.7,63.7,96,81,61,30.05,29.93,7,2,9,0.00
2014-5-24,84.9,75.1,66.4,72.7,68.4,64.4,96,80,63,30.02,29.88,9,2,12,0.00
2014-5-25,84.8,75.4,70.0,71.6,69.1,67.2,93,81,60,29.99,29.90,9,3,15,0.00
2014-5-26,78.1,70.7,65.0,71.6,67.5,63.6,98,90,74,30.02,29.86,16,3,20,0.23
2014-5-27,74.5,66.8,62.7,68.8,64.9,62.1,99,94,80,29.98,29.82,11,2,16,0.89
2014-5-28,82.8,73.0,65.6,68.8,66.8,64.7,99,83,58,29.89,29.79,6,1,11,0.00
2014-5-29,85.9,74.9,64.2,70.8,67.4,63.1,97,79,56,29.86,29.75,4,0,9,0.00
2014-5-30,86.1,77.2,69.3,72.7,69.6,67.4,96,79,57,29.83,29.74,8,2,13,0.00
2014-5-31,85.3,75.1,68.2,75.3,71.0,67.3,98,88,64,29.90,29.81,8,1,10,0.03
2014-6-1,89.3,77.8,67.1,75.1,71.2,66.2,99,82,57,29.91,29.79,8,2,10,0.01
2014-6-2,90.0,79.6,72.9,75.1,72.4,70.9,95,80,58,29.95,29.82,10,4,16,0.00
2014-6-3,88.7,78.9,69.9,75.2,72.5,69.3,99,82,61,29.98,29.85,7,1,11,0.00
2014-6-4,89.5,79.7,73.2,74.9,72.6,71.4,97,80,58,29.86,29.74,10,5,14,0.00
2014-6-5,88.9,79.2,70.7,76.9,73.1,69.3,97,82,65,29.82,29.73,13,4,17,0.00
2014-6-6,91.3,80.8,71.2,74.4,72.3,70.3,98,77,54,29.91,29.76,12,5,17,0.00
2014-6-7,93.2,80.8,68.7,74.7,72.1,67.4,98,77,52,29.91,29.79,11,4,15,0.00
2014-6-8,89.2,78.2,68.6,76.2,72.7,67.1,98,84,62,29.94,29.73,10,2,13,0.33
2014-6-9,78.4,72.3,62.2,73.2,69.1,61.6,100,90,68,29.86,29.70,12,3,15,1.42
2014-6-10,82.5,72.2,62.8,67.7,63.9,59.5,99,77,55,29.83,29.72,9,2,13,0.00
2014-6-11,91.0,77.4,61.2,72.5,67.7,59.5,95,75,48,29.87,29.71,7,2,11,0.00
2014-6-12,87.5,78.3,73.5,77.8,74.2,70.7,97,87,72,29.89,29.66,13,4,21,0.14
2014-6-13,90.2,78.4,66.3,74.6,71.7,65.9,100,82,56,29.94,29.83,11,1,15,1.08
2014-6-14,89.5,80.3,71.2,76.9,73.4,69.7,98,81,60,29.88,29.76,13,5,18,0.00
2014-6-15,90.5,80.9,74.2,76.4,73.4,71.4,95,79,59,29.89,29.77,14,6,21,0.00
2014-6-16,90.6,81.4,73.9,77.1,74.3,71.7,97,80,57,29.98,29.86,12,5,17,0.00
2014-6-17,91.1,81.9,75.1,78.2,74.1,71.3,96,78,60,29.97,29.85,13,5,18,0.00
2014-6-18,92.1,81.4,73.7,77.3,74.1,71.0,94,80,56,29.94,29.86,12,6,17,0.00
2014-6-19,91.3,82.0,72.9,76.5,73.7,70.9,97,77,55,30.00,29.91,10,5,15,0.00
2014-6-20,91.8,81.2,71.8,75.8,72.5,69.5,97,77,51,30.05,29.93,5,1,10,0.00
2014-6-21,86.6,79.1,72.2,76.0,73.4,70.2,96,83,67,30.00,29.85,5,0,7,0.00
2014-6-22,78.1,75.2,73.0,76.5,73.8,71.8,98,95,91,29.93,29.74,9,0,10,0.27
2014-6-23,89.9,77.3,66.0,75.1,72.2,65.3,100,86,58,29.96,29.78,16,2,22,0.10
2014-6-24,92.3,78.1,68.0,77.9,72.8,66.1,99,85,56,30.03,29.89,12,2,13,0.78
2014-6-25,79.4,74.5,70.6,75.6,72.6,69.4,99,94,83,30.01,29.92,7,2,10,0.06
2014-6-26,87.7,76.6,68.4,77.2,72.6,67.9,99,88,69,29.98,29.83,9,4,12,0.00
2014-6-27,89.6,78.7,71.2,77.8,73.4,69.4,95,85,62,29.88,29.76,13,6,22,0.01
2014-6-28,90.0,82.3,76.0,77.6,75.0,72.4,93,79,64,29.88,29.79,14,9,21,0.01
2014-6-29,92.6,83.6,76.8,77.3,75.3,73.7,94,77,58,29.98,29.87,15,9,19,0.00
2014-6-30,92.8,83.0,74.5,75.7,73.6,70.0,96,75,48,29.95,29.81,13,9,18,0.00
2014-7-1,88.5,77.2,71.0,75.6,72.9,70.1,98,88,63,29.95,29.81,9,3,14,0.00
2014-7-2,95.8,84.4,72.5,75.4,73.0,68.5,96,71,43,30.01,29.94,6,1,7,0.00
2014-7-3,90.0,78.8,69.9,74.3,70.4,67.0,97,77,49,30.10,30.00,11,3,14,0.00
2014-7-4,91.9,78.5,64.7,75.0,70.2,63.8,98,78,51,30.17,30.07,8,1,11,0.00
2014-7-5,91.6,80.1,68.5,74.7,71.9,67.8,98,78,54,30.14,30.00,6,1,9,0.00
2014-7-6,90.0,78.1,68.3,74.8,71.7,67.4,98,82,59,30.03,29.91,6,2,10,0.00
2014-7-7,95.0,82.8,71.7,73.0,70.8,67.4,94,70,42,29.96,29.86,9,3,13,0.00
2014-7-8,95.5,83.8,72.7,75.0,72.1,68.2,95,70,45,29.98,29.88,9,3,14,0.00
2014-7-9,96.6,82.3,70.3,73.7,69.3,65.9,92,67,39,30.02,29.88,8,2,13,0.00
2014-7-10,94.3,82.5,69.6,72.9,69.4,66.6,96,67,43,30.02,29.89,9,3,14,0.00
2014-7-11,95.6,82.5,67.5,73.6,68.1,60.3,93,65,32,30.09,29.99,10,3,15,0.00
2014-7-12,95.6,82.9,69.5,72.7,69.4,66.4,92,67,42,30.12,29.98,8,2,10,0.00
2014-7-13,98.7,85.3,72.9,74.5,70.9,67.3,90,65,38,30.04,29.91,6,1,10,0.00
2014-7-14,99.4,85.7,73.1,73.4,70.8,66.6,92,64,37,29.97,29.84,9,2,12,0.00
2014-7-15,90.8,82.0,72.9,76.1,72.5,66.2,92,74,47,29.96,29.88,7,1,14,0.00
2014-7-16,92.1,79.1,66.1,75.1,68.7,59.4,86,71,53,29.97,29.80,9,2,15,0.00
2014-7-17,84.0,76.5,72.4,77.3,73.5,71.0,97,90,75,29.87,29.78,6,2,10,0.14
2014-7-18,77.8,70.9,67.1,71.5,67.4,65.1,99,89,72,29.97,29.85,6,2,12,0.00
2014-7-19,80.6,72.2,65.3,68.1,65.9,63.6,95,81,64,29.99,29.92,4,0,6,0.00
2014-7-20,91.8,75.7,62.3,77.8,70.4,61.5,99,85,62,30.00,29.88,6,1,8,0.00
2014-7-21,96.9,83.7,72.9,78.8,74.3,68.4,99,77,41,30.00,29.89,6,2,8,0.00
2014-7-22,96.8,84.0,73.5,79.3,74.2,69.1,98,75,44,30.00,29.93,9,1,11,0.00
2014-7-23,94.1,81.7,69.9,74.2,70.9,67.7,98,73,47,30.04,29.93,19,2,22,0.00
2014-7-24,95.3,81.7,71.7,71.8,69.4,67.5,92,69,41,30.01,29.88,9,1,13,0.00
2014-7-25,97.8,83.3,68.9,75.2,71.7,67.6,97,71,44,29.98,29.85,8,2,12,0.00
2014-7-26,98.9,85.9,74.0,76.2,72.3,68.7,94,67,39,29.97,29.85,9,4,15,0.00
2014-7-27,100.5,87.0,75.3,75.2,72.5,68.5,94,65,37,30.00,29.91,8,4,15,0.00
2014-7-28,100.6,81.8,74.6,74.7,72.9,71.3,94,77,40,30.06,29.96,10,1,11,0.37
2014-7-29,86.5,76.9,71.2,72.4,68.2,55.1,96,76,37,30.09,29.99,5,0,8,0.00
2014-7-30,94.0,80.9,70.3,75.5,71.6,68.2,97,76,48,30.01,29.84,10,2,15,0.00
2014-7-31,88.8,80.9,72.0,76.5,73.5,68.1,90,79,62,29.95,29.85,9,4,15,0.00
2014-8-1,81.0,73.9,69.9,71.3,68.5,67.4,93,84,68,29.99,29.93,8,2,13,0.00
2014-8-2,85.8,75.6,67.8,70.5,68.2,66.5,97,79,58,30.04,29.95,10,3,16,0.00
2014-8-3,90.6,79.0,67.8,72.4,69.4,66.5,97,74,51,30.03,29.91,11,3,15,0.00
2014-8-4,93.0,81.0,70.2,74.2,70.9,68.7,96,74,47,30.01,29.90,10,2,14,0.00
2014-8-5,96.4,83.4,69.4,75.7,71.4,67.9,97,70,44,30.02,29.91,7,1,9,0.00
2014-8-6,97.1,84.6,74.1,74.6,72.0,70.2,94,68,43,29.99,29.84,10,3,14,0.00
2014-8-7,101.7,87.1,75.9,76.2,73.0,69.9,92,66,38,29.90,29.74,11,5,16,0.00
2014-8-8,102.0,88.1,76.9,76.4,72.9,67.7,92,64,35,29.90,29.78,10,4,15,0.00
2014-8-9,99.3,87.4,76.3,76.5,72.0,66.8,91,63,36,29.95,29.83,9,4,12,0.00
2014-8-10,101.9,88.2,74.0,75.5,71.2,65.5,93,61,32,29.98,29.84,6,2,9,0.00
2014-8-11,96.6,83.5,75.2,76.5,73.9,71.2,93,75,47,29.98,29.89,8,1,9,0.32
2014-8-12,96.3,83.1,71.8,75.5,65.7,54.0,95,62,26,30.01,29.92,12,3,17,0.01
2014-8-13,93.0,78.3,62.6,65.1,61.6,57.1,89,60,37,30.05,29.92,8,1,13,0.00
2014-8-14,94.3,79.4,63.7,68.4,63.8,60.1,93,63,36,30.02,29.90,10,2,14,0.00
2014-8-15,98.8,83.1,69.3,75.3,69.0,64.4,89,65,39,29.96,29.79,9,2,16,0.00
2014-8-16,101.5,88.0,76.2,76.1,71.2,64.8,91,61,31,29.91,29.78,11,5,16,0.00
2014-8-17,85.6,79.4,75.7,77.6,73.9,71.5,94,84,63,29.96,29.83,11,2,15,0.12
2014-8-18,96.9,83.7,75.8,76.6,73.3,69.7,95,73,46,29.93,29.77,14,2,18,0.06
2014-8-19,96.5,83.9,76.4,75.2,71.3,62.2,92,69,34,29.90,29.77,17,6,21,0.00
2014-8-20,99.0,85.1,75.6,76.4,72.8,68.9,92,70,38,29.93,29.82,16,7,22,0.00
2014-8-21,100.5,87.6,75.0,77.5,70.9,64.3,96,63,33,29.99,29.88,15,7,20,0.00
2014-8-22,101.0,87.7,75.8,76.3,71.5,64.4,92,62,32,30.01,29.88,14,6,17,0.00
2014-8-23,99.4,86.0,73.0,75.0,70.6,66.6,94,63,36,29.97,29.82,9,3,14,0.00
2014-8-24,100.3,86.4,74.3,75.2,69.8,64.9,90,61,33,29.91,29.78,9,3,14,0.00
2014-8-25,101.5,86.3,71.2,72.4,68.8,64.4,91,60,33,29.92,29.80,8,1,13,0.00
2014-8-26,97.5,85.7,73.3,74.2,71.1,68.4,91,64,41,29.96,29.86,13,3,19,0.00
2014-8-27,95.3,83.6,71.3,74.1,68.6,60.3,93,65,33,30.00,29.87,10,3,18,0.00
2014-8-28,98.4,83.3,69.0,73.5,69.3,63.5,93,66,33,29.92,29.76,14,3,0,0.00
2014-8-29,91.9,78.0,71.6,75.1,72.5,70.1,96,84,54,29.88,29.81,12,2,13,0.02
2014-8-30,92.4,80.2,69.9,74.3,71.1,68.4,97,76,52,29.92,29.82,6,1,0,0.00
2014-8-31,96.1,83.1,72.3,74.9,72.3,69.8,94,72,44,29.93,29.82,14,6,0,0.00
2014-9-1,91.4,79.1,76.1,75.8,73.6,71.3,93,84,58,29.88,29.86,12,7,19,0.00
2014-9-2,97.5,85.2,76.8,76.1,74.2,72.2,93,72,46,29.92,29.82,17,6,20,0.00
2014-9-3,94.3,80.3,72.3,75.8,73.4,71.1,96,81,49,29.96,29.88,10,2,0,0.00
2014-9-4,98.2,83.4,75.6,76.2,73.0,68.9,94,73,39,29.99,29.88,11,4,15,0.00
2014-9-5,97.1,81.8,71.6,76.8,71.8,69.3,95,75,43,30.04,29.92,4,1,3,0.00
2014-9-6,94.9,81.8,71.6,75.6,71.6,69.3,95,73,46,30.01,29.88,7,1,0,0.00
2014-9-7,89.5,79.0,72.5,72.6,70.8,69.5,93,77,55,30.03,29.91,9,1,0,0.00
2014-9-8,95.2,82.6,70.1,74.2,70.4,68.3,96,69,45,29.99,29.85,6,1,0,0.00
2014-9-9,96.9,84.6,72.9,73.9,70.7,68.7,92,66,42,29.94,29.76,10,4,14,0.00
2014-9-10,91.8,80.4,76.3,74.6,72.6,70.9,90,78,55,29.80,29.77,14,8,22,0.00
2014-9-11,94.6,82.9,75.9,77.3,74.0,71.9,90,76,53,29.88,29.76,11,4,15,0.21
2014-9-12,82.4,74.4,62.8,74.9,70.9,60.0,97,89,72,30.13,29.92,12,3,22,0.00
2014-9-13,69.4,62.8,57.5,61.5,59.0,56.1,96,88,76,30.22,30.11,11,4,16,0.00
2014-9-14,64.4,63.1,62.1,62.0,60.6,59.9,94,92,88,30.19,30.14,2,0,2,0.00
2014-9-15,83.6,72.7,67.8,71.2,67.9,65.7,95,86,65,30.10,30.02,1,0,1,0.00
2014-9-16,90.7,78.3,72.5,77.5,72.3,70.5,95,83,58,30.06,29.90,7,0,14,0.01
2014-9-17,93.5,79.2,70.4,75.6,72.5,68.6,97,82,49,29.94,29.77,10,1,12,0.19
2014-9-18,86.2,76.0,69.3,76.8,73.1,68.4,98,91,67,29.86,29.77,13,1,13,0.15
2014-9-19,88.7,75.4,69.3,75.1,71.5,68.4,99,89,60,29.91,29.82,8,1,15,0.00
2014-9-20,92.1,78.3,69.9,76.0,68.9,62.5,98,77,40,29.96,29.86,9,2,15,0.00
2014-9-21,70.1,69.6,68.8,66.4,65.3,64.2,88,86,84,29.95,29.94,0,0,0,0.00
2014-9-22,89.0,77.6,65.0,70.7,64.1,55.1,93,66,40,30.10,30.00,8,2,0,0.00
2014-9-23,85.7,70.1,57.0,58.0,55.1,45.5,91,63,25,30.14,30.01,6,1,13,0.00
2014-9-24,88.4,63.6,52.8,59.2,52.8,49.1,96,74,27,30.14,30.03,8,1,13,0.00
2014-9-25,88.4,72.3,55.4,64.6,58.8,53.0,94,66,38,30.14,30.01,7,1,10,0.00
2014-9-26,86.1,70.3,63.0,67.1,63.5,60.8,95,81,44,30.08,30.03,5,1,9,0.00
2014-9-27,87.8,74.9,64.1,66.0,61.6,56.6,86,65,41,30.03,29.91,8,1,0,0.00
2014-9-28,89.4,77.0,68.4,66.7,63.0,59.8,84,64,39,30.01,29.89,9,2,0,0.00
2014-9-29,89.7,75.5,61.5,65.5,62.6,59.2,93,67,40,29.96,29.83,6,1,0,0.00
2014-9-30,90.3,75.4,65.0,72.9,67.4,61.2,94,78,49,29.85,29.69,10,1,12,0.01
2014-10-1,93.7,79.5,71.6,73.2,71.5,69.4,95,79,47,29.79,29.68,9,3,14,0.00
2014-10-2,94.5,80.7,68.3,75.6,72.8,62.3,99,79,43,29.91,29.63,17,8,21,0.77
2014-10-3,70.6,63.4,58.5,62.3,57.6,54.8,88,81,75,30.03,29.91,3,0,5,0.00
2014-10-4,80.4,64.7,49.7,52.6,42.4,32.4,86,51,20,30.19,29.95,8,1,0,0.00
2014-10-5,84.5,69.8,57.6,65.8,58.5,45.4,83,68,50,29.94,29.76,11,5,0,0.00
2014-10-6,84.5,72.3,65.6,68.6,64.9,62.9,98,79,50,29.92,29.77,12,3,0,0.16
2014-10-7,94.1,79.1,66.5,74.1,68.8,63.0,97,74,40,29.90,29.80,11,5,0,0.00
2014-10-8,90.6,79.7,72.0,73.0,69.7,65.4,96,74,45,29.98,29.88,9,5,10,0.00
2014-10-9,80.2,75.7,73.9,73.5,72.7,72.0,95,90,80,29.95,29.90,10,5,15,0.00
2014-10-10,92.0,81.0,72.6,73.8,70.3,67.6,94,72,47,29.89,29.77,10,5,9,0.00
2014-10-11,79.2,62.7,57.6,72.1,61.3,57.0,99,95,75,30.06,29.84,8,1,11,1.66
2014-10-12,73.1,63.2,58.4,71.9,60.2,53.7,98,90,80,30.01,29.64,14,2,8,0.40
2014-10-13,74.9,73.8,64.5,72.2,71.3,63.7,98,92,84,29.67,29.59,20,16,27,0.37
2014-10-17,86.7,71.1,57.4,65.1,59.8,55.7,95,70,45,29.90,29.80,9,4,0,0.00
2014-10-18,84.3,70.0,57.8,69.1,62.7,57.1,99,80,55,30.05,29.90,4,0,0,0.00
2014-10-19,77.1,66.4,59.3,62.4,58.9,56.7,92,78,59,30.11,29.99,6,1,0,0.00
2014-10-20,81.4,66.0,54.3,64.3,59.0,53.5,98,80,53,30.06,29.95,0,0,0,0.00
2014-10-21,81.1,66.2,53.1,62.0,57.4,52.6,99,77,42,30.07,29.96,5,1,0,0.00
2014-10-22,80.2,67.3,56.2,65.4,59.3,55.4,99,78,52,30.11,30.01,7,1,0,0.00
2014-10-23,68.3,62.1,60.3,58.9,57.8,57.3,91,86,70,30.12,30.05,0,0,0,0.01
2014-10-24,80.3,62.1,55.8,61.6,55.9,53.2,92,82,53,30.15,30.07,3,0,8,0.00
2014-10-25,87.7,71.7,58.5,65.4,61.0,56.3,93,72,46,30.13,30.01,8,1,0,0.00
2014-10-26,85.2,71.9,60.9,64.5,60.0,55.5,92,69,38,30.01,29.85,9,3,0,0.00
2014-10-27,83.4,70.5,61.7,66.3,61.7,57.3,95,76,47,29.86,29.77,17,8,23,0.00
2014-10-28,82.7,72.0,64.5,68.8,64.9,62.0,93,80,53,30.03,29.83,9,2,12,0.00
2014-10-29,75.6,66.6,53.0,65.0,56.6,48.3,92,73,41,30.15,30.03,6,1,11,0.00
2014-10-30,79.3,62.5,46.8,57.0,51.6,44.6,96,71,44,30.14,30.01,5,0,8,0.00
2014-10-31,62.0,59.9,58.0,56.4,54.4,51.5,85,82,79,30.12,30.10,0,0,0,0.00
2014-11-1,63.2,49.0,37.0,40.0,35.2,32.5,88,62,33,30.42,30.27,9,1,0,0.00
2014-11-2,70.9,53.9,37.9,51.8,42.6,34.1,87,67,47,30.35,30.16,12,4,16,0.00
2014-11-3,76.4,65.7,52.6,61.6,57.0,50.7,95,75,56,30.17,30.03,16,6,22,0.00
2014-11-4,70.9,63.4,56.3,67.3,60.9,56.0,100,92,78,30.16,30.01,12,3,18,1.51
2014-11-5,56.6,55.3,53.1,56.6,55.3,52.9,100,100,99,30.21,30.08,4,0,11,1.01
2014-11-6,68.0,58.0,48.4,56.4,51.0,44.1,100,79,53,30.31,30.20,5,0,9,0.00
2014-11-7,66.7,51.7,42.1,48.0,42.7,37.6,87,72,45,30.26,30.04,6,0,10,0.00
2014-11-8,67.7,60.6,50.8,52.9,46.2,40.6,72,60,40,30.13,30.04,14,3,21,0.00
2014-11-9,70.1,54.7,40.4,49.0,43.2,36.2,89,68,41,30.13,29.85,10,2,13,0.00
2014-11-10,75.6,61.8,47.2,60.0,52.1,43.2,91,72,47,29.85,29.64,22,9,30,0.00
2014-11-11,64.4,47.4,39.5,62.0,38.2,29.4,93,71,54,30.22,29.68,12,6,18,0.00
2014-11-12,43.9,37.9,33.8,29.3,24.8,19.7,70,59,50,30.45,30.22,12,6,18,0.00
2014-11-13,38.0,33.5,27.3,19.5,15.4,11.7,69,48,36,30.57,30.45,10,4,20,0.00
2014-11-14,40.9,35.1,26.2,26.8,20.8,16.8,72,56,41,30.48,30.29,0,0,0,0.00
2014-11-15,45.5,41.9,39.1,41.8,34.0,25.2,97,74,57,30.29,30.02,9,2,15,0.00
2014-11-16,42.6,39.3,30.1,41.8,37.8,26.4,99,95,83,30.25,29.94,11,2,13,0.02
2014-11-17,46.1,33.6,23.4,26.1,22.6,19.5,89,66,37,30.46,30.24,5,1,16,0.00
2014-11-18,54.6,38.3,24.6,26.9,23.7,19.6,86,59,30,30.52,30.33,6,1,9,0.00
2014-11-19,67.2,49.1,34.8,47.1,37.5,24.4,84,65,45,30.34,30.10,14,4,18,0.00
2014-11-20,70.7,58.2,44.5,60.5,53.0,42.6,98,84,67,30.12,29.96,12,4,16,0.05
2014-11-21,65.6,62.3,59.2,64.3,61.3,58.3,99,97,94,30.09,30.00,10,4,13,0.01
2014-11-22,63.1,60.6,58.0,61.5,59.8,58.0,100,97,92,30.06,29.64,12,3,14,0.89
2014-11-23,77.3,62.2,-90.0,59.7,51.6,41.6,100,71,33,29.79,29.40,13,5,18,0.00
2014-11-24,61.3,49.3,40.3,41.7,35.8,29.0,88,62,30,30.16,29.79,6,0,8,0.00
2014-11-25,64.3,49.6,37.4,37.2,32.0,26.5,75,53,24,30.32,30.13,9,1,14,0.00
2014-11-26,67.9,51.8,38.1,38.6,35.0,32.3,84,56,27,30.36,30.06,9,2,15,0.00
2014-11-27,61.1,47.8,38.3,37.6,31.4,27.6,76,55,30,30.52,30.35,7,1,11,0.00
2014-11-28,69.7,53.4,37.9,55.5,44.7,31.5,83,73,55,30.35,30.00,17,5,21,0.00
2014-11-29,75.1,63.4,53.3,60.8,56.7,50.5,96,80,58,30.00,29.88,20,10,26,0.00
2014-11-30,78.8,69.5,63.2,65.8,62.8,60.2,93,80,57,30.07,29.91,19,9,24,0.00
2014-12-1,64.2,45.2,37.3,62.9,35.9,24.3,98,70,53,30.43,30.06,9,2,16,0.00
2014-12-2,50.1,42.5,35.2,43.4,31.1,22.3,79,64,54,30.43,30.17,4,0,10,0.00
2014-12-3,61.9,54.8,48.4,56.2,51.1,42.4,93,87,78,30.20,30.10,5,0,8,0.00
2014-12-4,66.5,59.6,55.1,60.8,56.9,52.9,98,91,80,30.16,30.02,3,0,4,0.00
2014-12-5,74.9,67.3,61.1,66.2,62.9,56.2,99,86,69,30.14,29.97,12,5,21,0.00
2014-12-6,67.3,58.4,48.3,56.2,51.6,45.8,93,79,59,30.36,30.14,9,2,17,0.00
2014-12-7,53.6,49.0,44.8,47.5,45.7,43.1,96,89,77,30.39,30.23,1,0,2,0.00
2014-12-8,63.3,48.9,40.4,50.2,44.8,39.9,99,87,60,30.35,30.25,0,0,0,0.00
2014-12-9,62.6,47.0,36.6,54.0,44.3,36.1,99,91,69,30.36,30.22,0,0,0,0.01
2014-12-10,63.9,50.0,35.3,53.3,45.6,34.5,99,86,60,30.25,30.12,3,0,0,0.01
2014-12-11,64.8,58.3,52.3,59.6,55.6,49.3,96,91,81,30.19,30.11,5,1,0,0.01
2014-12-12,69.5,60.9,53.8,60.7,56.7,52.4,96,87,73,30.24,30.15,9,1,0,0.00
2014-12-13,68.2,58.7,50.1,62.1,56.3,49.3,99,92,76,30.20,30.02,12,2,0,0.00
2014-12-14,69.6,64.7,61.2,65.3,62.3,58.7,96,92,82,30.02,29.77,16,4,0,0.35
2014-12-15,66.9,59.8,46.5,64.6,47.9,36.6,99,68,37,30.15,29.80,12,1,0,0.00
2014-12-16,54.5,36.8,-90.0,37.5,26.3,-94.5,89,67,50,30.36,30.15,5,0,0,0.00
2014-12-17,48.7,44.8,36.7,44.9,40.5,33.8,96,85,72,30.29,30.00,3,0,0,0.02
2014-12-18,50.3,47.4,44.5,50.0,46.7,43.7,99,98,95,30.14,30.06,3,0,0,0.01
2014-12-19,48.6,47.4,45.7,48.1,46.8,45.3,99,98,96,30.19,30.05,5,1,8,0.41
2014-12-20,49.0,47.8,47.0,47.2,46.4,45.5,97,95,92,30.23,30.14,0,0,0,0.00
2014-12-21,53.9,49.5,46.3,51.9,47.2,44.8,96,92,83,30.16,29.75,13,2,14,0.00
2014-12-22,71.5,59.4,51.6,56.4,50.7,44.8,94,75,41,29.75,29.52,18,8,26,0.00
2014-12-23,54.1,48.5,42.5,47.1,42.2,34.0,98,79,68,29.93,29.61,16,2,20,0.13
2014-12-24,52.6,43.6,33.8,38.3,34.6,30.1,89,71,52,30.07,29.93,7,1,11,0.00
2014-12-25,62.1,47.2,33.3,47.3,36.3,29.6,88,69,36,30.09,29.93,17,5,24,0.00
2014-12-26,66.7,60.7,52.5,63.6,57.8,47.3,98,90,79,29.95,29.84,10,3,14,0.02
2014-12-27,64.4,46.6,36.6,63.5,43.3,30.7,99,88,79,30.28,29.92,10,3,18,0.02
2014-12-28,43.2,36.9,28.5,32.2,29.8,25.8,91,76,60,30.29,30.14,4,0,11,0.02
2014-12-29,56.7,39.0,24.1,41.3,33.4,22.5,96,82,48,30.22,30.04,2,0,7,0.00
2014-12-30,43.2,40.3,35.7,40.9,36.5,31.8,94,86,76,30.50,30.22,4,0,11,0.00
2014-12-31,40.1,37.7,35.3,32.6,30.4,29.0,85,75,72,30.57,30.38,3,0,10,0.00
2015-1-1,38.2,36.0,33.5,37.8,34.9,31.0,99,96,85,30.39,30.17,2,0,6,0.41
2015-1-2,41.8,40.0,37.6,41.8,39.9,37.2,100,100,99,30.19,29.94,1,0,5,0.18